Aérodrome :
LOGIN :

S'inscrire | Disclaimer

   EN    FR    IT 

 










Légende :    VFR   VFR Marginal   IFR   IFR Intensif   IFR Très Intensif
Visi : 
Plafond : 
>= 8 km
>= 3000ft
5 à 8 km
1000 à 3000 ft
1500m à 5 km
500 à 1000 ft
800 à 1500m
200 à 500 ft
< 800m
< 200 ft
Symboles :   Orages  Brouillard  Fortes neiges  Fortes précipitations  Vent > 20 kt
SIGMETs :   Divers  Orages  Givrage  Turbulence  Onde Orograph.  Cendres Volcan.






- Altitude de l'aérodrome : 147 ft
- Code IATA : DUS


EDDL - Düsseldorf Int.

DERNIER METAR :
  • 230720Z AUTO 22015KT 190V250 4500 SHRA BR SCT022 BKN030 BKN044 FEW///TCU 19/17 Q1016 TEMPO 9999 NSW BKN012

METARs EXPIRÉS :
  • 230650Z AUTO 20011KT 9999 FEW025 21/16 Q1016 TEMPO SHRA BKN014CB
  • 230620Z AUTO 20011KT 9999 SCT027 BKN033 20/16 Q1016 TEMPO SHRA BKN014CB
  • 230550Z AUTO 19008KT 9999 BKN033 21/16 Q1016 TEMPO SHRA BKN014CB
  • 230520Z AUTO 16007KT 9999 SCT037 20/15 Q1016 TEMPO SHRA BKN015CB
  • 230450Z AUTO 16006KT CAVOK 19/15 Q1016 NOSIG
  • 230420Z AUTO 16007KT CAVOK 19/14 Q1016 NOSIG
  • 230350Z AUTO 17008KT CAVOK 19/14 Q1016 NOSIG
  • 230320Z AUTO 19008KT CAVOK 19/14 Q1017 NOSIG
  • 230250Z AUTO 18008KT 9999 FEW047 20/14 Q1017 NOSIG

TAF TAF EDDL
Valide du 23 à 06h jusqu'au 24 à 12h UTC


230500Z 2306/2412 18008KT 9999 BKN025
TEMPO 2306/2319 SHRA BKN020CB
PROB30
TEMPO 2306/2309 21013KT 4000 TSRA BKN012CB
BECMG 2309/2312 26012KT
PROB40
TEMPO 2315/2318 28015G30KT 3000 +TSRA BKN014CB
BECMG 2318/2321 29005KT
BECMG 2400/2403 BKN010
TEMPO 2402/2406 BKN007
BECMG 2406/2409 SCT010 BKN020
BECMG 2410/2412 30010KT



MET'MAP, la Météo Aéronautique d'un coup d'oeil ! - Copyright ORBIFLY Décembre 2007 - Disclaimer

ORBIFLY MET'MAP TEAM :

Programmation & Développement : Alexandra Zaïnal
Sur une idée originale de : Baudouin d'Aumeries
Soutien technique & logistique : Manuel Goepfert
Assistance : Marc-Olivier Méhu




SOURCES & CREDITS :

   NOAA